ADDS METAR Data INFO
IDs: Format: Raw Decoded Include TAF

Data at: 0542 UTC 11 Dec 2017

KDQH 110535Z AUTO 00000KT 10SM CLR 00/00 A3030 RMK AO2
KDQH 110515Z AUTO 00000KT 10SM CLR 00/00 A3030 RMK AO2
KDQH 110455Z AUTO 00000KT 10SM CLR 00/00 A3030 RMK AO2
KDQH 110435Z AUTO 00000KT 10SM CLR 01/00 A3030 RMK AO2
KDQH 110415Z AUTO 00000KT 10SM CLR 01/00 A3031 RMK AO2
KDQH 110355Z AUTO 00000KT 10SM CLR 01/00 A3031 RMK AO2
KDQH 110335Z AUTO 00000KT 10SM CLR 01/00 A3031 RMK AO2
KDQH 110315Z AUTO 00000KT 10SM CLR 01/00 A3031 RMK AO2
KDQH 110255Z AUTO 00000KT 10SM CLR 01/00 A3030 RMK AO2
KDQH 110235Z AUTO 00000KT 10SM CLR 01/00 A3030 RMK AO2
KDQH 110215Z AUTO 00000KT 10SM CLR 02/01 A3029 RMK AO2
KDQH 110155Z AUTO 00000KT 10SM CLR 02/01 A3029 RMK AO2
KDQH 110135Z AUTO 00000KT 10SM CLR 02/01 A3029 RMK AO2
KDQH 110115Z AUTO 00000KT 10SM CLR 02/01 A3029 RMK AO2
KDQH 110055Z AUTO 00000KT 10SM CLR 02/00 A3029 RMK AO2
KDQH 110035Z AUTO 00000KT 10SM CLR 03/00 A3029 RMK AO2
KDQH 110015Z AUTO 00000KT 10SM CLR 03/00 A3029 RMK AO2
KDQH 102355Z AUTO 00000KT 10SM CLR 03/00 A3029 RMK AO2
KDQH 102335Z AUTO 00000KT 10SM CLR 04/00 A3029 RMK AO2
KDQH 102315Z AUTO 00000KT 10SM CLR 05/00 A3028 RMK AO2
KDQH 102255Z AUTO 00000KT 10SM CLR 06/M01 A3027 RMK AO2
KDQH 102235Z AUTO 00000KT 10SM CLR 07/M02 A3027 RMK AO2
KDQH 102215Z AUTO 00000KT 10SM CLR 08/M04 A3027 RMK AO2
KDQH 102155Z AUTO 29005KT 10SM CLR 10/M04 A3027 RMK AO2
KDQH 102135Z AUTO 30005KT 10SM CLR 10/M05 A3027 RMK AO2
KDQH 102115Z AUTO 28006KT 10SM CLR 10/M05 A3027 RMK AO2
KDQH 102055Z AUTO 28008KT 10SM CLR 10/M05 A3026 RMK AO2
KDQH 102035Z AUTO 28007KT 10SM CLR 10/M04 A3026 RMK AO2
KDQH 102015Z AUTO 27006KT 10SM CLR 10/M05 A3026 RMK AO2
KDQH 101955Z AUTO 29005KT 10SM CLR 10/M05 A3027 RMK AO2
KDQH 101935Z AUTO 34007KT 10SM CLR 10/M04 A3026 RMK AO2
KDQH 101915Z AUTO 29008KT 10SM CLR 09/M04 A3027 RMK AO2
KDQH 101855Z AUTO 29007KT 10SM CLR 10/M05 A3028 RMK AO2
KDQH 101835Z AUTO 30005KT 10SM CLR 09/M05 A3028 RMK AO2
KDQH 101815Z AUTO 26006KT 10SM CLR 08/M03 A3028 RMK AO2
KDQH 101755Z AUTO 27005KT 10SM CLR 08/M03 A3029 RMK AO2
KDQH 101735Z AUTO 33003KT 10SM CLR 07/M04 A3031 RMK AO2
KDQH 101715Z AUTO 00000KT 10SM CLR 07/M05 A3032 RMK AO2
KDQH 101655Z AUTO 30005KT 10SM CLR 06/M04 A3032 RMK AO2
KDQH 101635Z AUTO 00000KT 10SM CLR 06/M05 A3033 RMK AO2
KDQH 101615Z AUTO 00000KT 10SM CLR 05/M05 A3033 RMK AO2
KDQH 101555Z AUTO 33007KT 10SM CLR 05/M04 A3034 RMK AO2
KDQH 101535Z AUTO 32007KT 10SM CLR 05/M05 A3035 RMK AO2
KDQH 101515Z AUTO 33007KT 10SM CLR 05/M04 A3035 RMK AO2
KDQH 101455Z AUTO 36005KT 10SM CLR 03/M03 A3035 RMK AO2
KDQH 101435Z AUTO 34008KT 10SM CLR 02/M03 A3035 RMK AO2
KDQH 101415Z AUTO 33004KT 10SM CLR 02/M02 A3035 RMK AO2
KDQH 101355Z AUTO 32006KT 10SM CLR 01/M01 A3035 RMK AO2
KDQH 101335Z AUTO 29003KT 10SM CLR 00/M01 A3033 RMK AO2
KDQH 101315Z AUTO 29003KT 10SM CLR 00/M01 A3033 RMK AO2
KDQH 101255Z AUTO 00000KT 10SM CLR 00/M01 A3033 RMK AO2
KDQH 101235Z AUTO 33004KT 10SM CLR 00/M02 A3032 RMK AO2
KDQH 101215Z AUTO 00000KT 10SM CLR 00/M01 A3031 RMK AO2
KDQH 101155Z AUTO 30003KT 10SM CLR 00/M01 A3031 RMK AO2
KDQH 101135Z AUTO 31003KT 10SM CLR 00/M01 A3031 RMK AO2
KDQH 101115Z AUTO 33003KT 10SM CLR 00/M01 A3030 RMK AO2
KDQH 101055Z AUTO 00000KT 10SM CLR 00/M01 A3029 RMK AO2
KDQH 101035Z AUTO 31003KT 10SM CLR 00/M01 A3028 RMK AO2
KDQH 101015Z AUTO 31004KT 10SM CLR 00/M02 A3028 RMK AO2
KDQH 100955Z AUTO 30004KT 10SM CLR 00/M02 A3027 RMK AO2
KDQH 100935Z AUTO 30004KT 10SM CLR 00/M02 A3027 RMK AO2
KDQH 100915Z AUTO 30005KT 10SM CLR 00/M02 A3026 RMK AO2
KDQH 100855Z AUTO 29005KT 10SM CLR 01/M02 A3025 RMK AO2
KDQH 100835Z AUTO 30004KT 10SM CLR 01/M02 A3025 RMK AO2
KDQH 100815Z AUTO 30004KT 10SM CLR 01/M02 A3024 RMK AO2
KDQH 100755Z AUTO 30006KT 10SM CLR 01/M02 A3023 RMK AO2
KDQH 100735Z AUTO 29005KT 10SM CLR 01/M02 A3023 RMK AO2
KDQH 100715Z AUTO 29003KT 10SM CLR 00/M02 A3022 RMK AO2
KDQH 100655Z AUTO 27004KT 10SM CLR 00/M02 A3022 RMK AO2
KDQH 100635Z AUTO 27003KT 10SM CLR 00/M02 A3021 RMK AO2
KDQH 100615Z AUTO 26003KT 10SM CLR 00/M02 A3021 RMK AO2
KDQH 100555Z AUTO 27004KT 10SM CLR 00/M02 A3022 RMK AO2
KDQH 100535Z AUTO 00000KT 10SM CLR 00/M01 A3021 RMK AO2
KDQH 100515Z AUTO 00000KT 10SM CLR 00/M02 A3021 RMK AO2
KDQH 100455Z AUTO 00000KT 10SM CLR 00/M02 A3021 RMK AO2
KDQH 100435Z AUTO 27003KT 10SM CLR 01/M02 A3020 RMK AO2
KDQH 100415Z AUTO 28003KT 10SM CLR 01/M01 A3020 RMK AO2
KDQH 100355Z AUTO 27003KT 10SM CLR 01/M02 A3020 RMK AO2
KDQH 100335Z AUTO 28004KT 10SM CLR 01/M02 A3019 RMK AO2
KDQH 100315Z AUTO 28004KT 10SM CLR 02/M02 A3018 RMK AO2
KDQH 100255Z AUTO 28003KT 10SM CLR 02/M01 A3018 RMK AO2
KDQH 100235Z AUTO 27004KT 10SM CLR 01/M01 A3017 RMK AO2
KDQH 100215Z AUTO 28003KT 10SM CLR 02/M01 A3016 RMK AO2
KDQH 100155Z AUTO 29004KT 10SM CLR 02/M01 A3015 RMK AO2
KDQH 100135Z AUTO 29004KT 10SM CLR 01/00 A3014 RMK AO2
KDQH 100115Z AUTO 00000KT 10SM CLR 01/00 A3012 RMK AO2
KDQH 100055Z AUTO 00000KT 10SM CLR 01/00 A3012 RMK AO2
KDQH 100035Z AUTO 00000KT 10SM CLR 01/00 A3011 RMK AO2
KDQH 100015Z AUTO 25003KT 10SM CLR 01/00 A3010 RMK AO2
KDQH 092355Z AUTO 24003KT 10SM CLR 02/00 A3009 RMK AO2
KDQH 092335Z AUTO 23003KT 10SM CLR 02/00 A3008 RMK AO2
KDQH 092315Z AUTO 23003KT 10SM CLR 02/00 A3007 RMK AO2
KDQH 092255Z AUTO 00000KT 10SM CLR 03/00 A3006 RMK AO2
KDQH 092235Z AUTO 28005KT 10SM CLR 05/00 A3006 RMK AO2
KDQH 092215Z AUTO 29006KT 10SM CLR 05/00 A3005 RMK AO2
KDQH 092155Z AUTO 28006KT 10SM CLR 05/00 A3003 RMK AO2
KDQH 092135Z AUTO 29005KT 10SM SCT021 SCT025 05/00 A3003 RMK AO2
KDQH 092115Z AUTO 28008KT 10SM SCT014 SCT022 05/00 A3003 RMK AO2
KDQH 092055Z AUTO 31006KT 10SM OVC014 04/01 A3003 RMK AO2
KDQH 092035Z AUTO 29011G17KT 10SM OVC014 04/01 A3003 RMK AO2
KDQH 092015Z AUTO 29010G18KT 10SM OVC014 04/01 A3002 RMK AO2
KDQH 091955Z AUTO 30012G19KT 10SM OVC016 05/01 A3002 RMK AO2
KDQH 091935Z AUTO 30009G16KT 10SM OVC016 05/01 A3001 RMK AO2
KDQH 091915Z AUTO 31010G18KT 10SM OVC016 05/02 A3000 RMK AO2
KDQH 091855Z AUTO 29011KT 10SM OVC016 05/02 A2999 RMK AO2
KDQH 091835Z AUTO 29010KT 10SM OVC016 06/02 A2999 RMK AO2
KDQH 091815Z AUTO 28008KT 10SM OVC014 05/02 A3000 RMK AO2
KDQH 091755Z AUTO 28011G16KT 10SM OVC014 05/03 A3000 RMK AO2